Time;durP1;ratioP1;P1;durP2;ratioP2;P2;SDS_P1;SDS_P2;PMS_P1;PMS_P2;Temp;Humidity;BMP_temperature;BMP_pressure;BME280_temperature;BME280_humidity;BME280_pressure;Samples;Min_cycle;Max_cycle;Signal;HPM_P1;HPM_P2
2022/04/13 00:02:02;;;;;;;8.73;1.63;;;;;;;;;;4977773;28;20038;-62
2022/04/13 00:04:28;;;;;;;4.40;1.58;;;;;;;;;;4991196;28;20118;-62
2022/04/13 00:06:54;;;;;;;4.72;1.48;;;;;;;;;;4992812;28;20083;-62
2022/04/13 00:09:20;;;;;;;7.38;1.80;;;;;;;;;;4992886;28;20034;-62
2022/04/13 00:11:46;;;;;;;8.82;1.90;;;;;;;;;;4979339;28;20064;-62
2022/04/13 00:14:13;;;;;;;5.50;1.88;;;;;;;;;;4973429;28;20109;-62
2022/04/13 00:16:39;;;;;;;5.00;1.40;;;;;;;;;;4973642;28;20042;-62
2022/04/13 00:19:05;;;;;;;8.70;1.95;;;;;;;;;;4978103;28;20034;-62
2022/04/13 00:21:31;;;;;;;8.43;1.80;;;;;;;;;;4979026;28;20052;-62
2022/04/13 00:23:58;;;;;;;9.30;2.78;;;;;;;;;;4988727;28;20026;-62
2022/04/13 00:26:24;;;;;;;4.80;1.73;;;;;;;;;;4973390;28;20038;-62
2022/04/13 00:28:50;;;;;;;4.38;1.38;;;;;;;;;;4973915;28;20132;-62
2022/04/13 00:31:16;;;;;;;6.15;1.92;;;;;;;;;;4972994;28;20077;-63
2022/04/13 00:33:42;;;;;;;4.70;2.00;;;;;;;;;;4984876;28;20046;-62
2022/04/13 00:36:09;;;;;;;12.05;3.03;;;;;;;;;;4975837;28;20023;-62
2022/04/13 00:38:35;;;;;;;7.43;1.83;;;;;;;;;;4973047;28;20038;-62
2022/04/13 00:41:01;;;;;;;3.67;1.80;;;;;;;;;;4973008;28;20449;-62
2022/04/13 00:43:27;;;;;;;5.60;1.60;;;;;;;;;;4972692;28;20099;-62
2022/04/13 00:45:53;;;;;;;3.75;1.70;;;;;;;;;;4972353;28;20484;-62
2022/04/13 00:48:31;;;;;;;6.88;1.55;;;;;;;;;;4984002;28;20029;-62
2022/04/13 00:50:58;;;;;;;7.70;1.98;;;;;;;;;;4992121;28;20026;-62
2022/04/13 00:53:24;;;;;;;5.28;1.60;;;;;;;;;;5006400;28;20082;-62
2022/04/13 00:55:55;;;;;;;6.03;1.58;;;;;;;;;;5034882;28;20059;-62
2022/04/13 00:58:23;;;;;;;6.82;1.77;;;;;;;;;;4972267;28;20054;-62
2022/04/13 01:00:49;;;;;;;4.22;1.75;;;;;;;;;;4972758;28;20027;-62
2022/04/13 01:03:16;;;;;;;4.07;1.80;;;;;;;;;;4980221;28;20035;-62
2022/04/13 01:05:42;;;;;;;5.75;1.63;;;;;;;;;;4972758;28;20031;-62
2022/04/13 01:08:09;;;;;;;5.93;1.58;;;;;;;;;;4972269;28;20023;-62
2022/04/13 01:10:36;;;;;;;5.82;1.60;;;;;;;;;;4984084;28;20022;-62
2022/04/13 01:13:03;;;;;;;2.80;1.42;;;;;;;;;;4972215;28;20022;-62
2022/04/13 01:15:29;;;;;;;7.38;1.83;;;;;;;;;;4976221;28;20034;-62
2022/04/13 01:17:55;;;;;;;8.70;1.75;;;;;;;;;;4991652;28;20034;-62
2022/04/13 01:20:23;;;;;;;3.03;1.52;;;;;;;;;;4991664;28;20101;-62
2022/04/13 01:22:49;;;;;;;5.22;2.00;;;;;;;;;;4991435;28;20026;-62
2022/04/13 01:25:15;;;;;;;7.75;1.75;;;;;;;;;;4990003;28;20038;-62
2022/04/13 01:27:41;;;;;;;5.22;1.70;;;;;;;;;;4972167;28;20037;-62
2022/04/13 01:30:08;;;;;;;4.05;1.60;;;;;;;;;;4974477;28;20019;-62
2022/04/13 01:32:35;;;;;;;5.45;1.67;;;;;;;;;;4971953;28;20037;-62
2022/04/13 01:35:01;;;;;;;3.92;1.23;;;;;;;;;;4971952;28;20450;-62
2022/04/13 01:37:27;;;;;;;4.28;2.17;;;;;;;;;;4972066;28;20110;-62
2022/04/13 01:39:54;;;;;;;5.18;1.55;;;;;;;;;;4972396;28;20027;-62
2022/04/13 01:42:20;;;;;;;2.97;2.10;;;;;;;;;;4973959;28;20080;-62
2022/04/13 01:44:48;;;;;;;4.60;1.30;;;;;;;;;;4991492;28;20037;-62
2022/04/13 01:47:14;;;;;;;2.80;1.73;;;;;;;;;;4972377;28;20460;-62
2022/04/13 01:49:40;;;;;;;3.13;1.35;;;;;;;;;;4988673;28;20054;-62
2022/04/13 01:52:08;;;;;;;2.30;1.45;;;;;;;;;;4973793;28;20033;-62
2022/04/13 01:54:34;;;;;;;6.15;1.52;;;;;;;;;;4972213;28;20027;-62
2022/04/13 01:57:00;;;;;;;3.40;1.42;;;;;;;;;;4983534;28;20054;-62
2022/04/13 01:59:27;;;;;;;3.15;1.63;;;;;;;;;;4985259;28;20098;-62
2022/04/13 02:01:53;;;;;;;4.43;1.70;;;;;;;;;;4971615;28;20037;-62
2022/04/13 02:04:23;;;;;;;2.03;1.35;;;;;;;;;;4971235;28;20037;-62
2022/04/13 02:06:50;;;;;;;5.28;2.30;;;;;;;;;;4985221;28;20083;-62
2022/04/13 02:09:17;;;;;;;8.00;3.42;;;;;;;;;;4990343;28;20547;-62
2022/04/13 02:11:44;;;;;;;4.10;1.65;;;;;;;;;;4991044;28;20147;-62
2022/04/13 02:14:10;;;;;;;4.35;1.73;;;;;;;;;;4991288;28;20068;-62
2022/04/13 02:16:36;;;;;;;5.57;1.35;;;;;;;;;;4980368;28;20495;-62
2022/04/13 02:19:03;;;;;;;3.30;1.80;;;;;;;;;;4977313;28;20101;-62
2022/04/13 02:21:30;;;;;;;5.07;2.00;;;;;;;;;;4981210;28;20380;-62
2022/04/13 02:23:57;;;;;;;4.43;2.25;;;;;;;;;;4981186;28;20079;-62
2022/04/13 02:26:24;;;;;;;6.93;1.90;;;;;;;;;;4980143;28;20034;-62
2022/04/13 02:28:50;;;;;;;5.28;1.73;;;;;;;;;;4979245;28;20054;-62
2022/04/13 02:31:17;;;;;;;4.15;2.17;;;;;;;;;;4981145;28;20027;-62
2022/04/13 02:33:43;;;;;;;2.80;1.58;;;;;;;;;;4978760;28;20049;-62
2022/04/13 02:36:09;;;;;;;2.90;1.45;;;;;;;;;;4983785;28;20669;-62
2022/04/13 02:38:35;;;;;;;5.13;1.63;;;;;;;;;;4986514;28;20031;-62
2022/04/13 02:41:02;;;;;;;5.30;1.85;;;;;;;;;;4978902;28;20434;-62
2022/04/13 02:43:28;;;;;;;4.00;1.40;;;;;;;;;;4981646;28;20080;-62
2022/04/13 02:45:55;;;;;;;6.93;1.92;;;;;;;;;;4981929;28;20078;-62
2022/04/13 02:48:21;;;;;;;3.42;1.65;;;;;;;;;;4985388;28;20446;-62
2022/04/13 02:50:48;;;;;;;3.05;1.67;;;;;;;;;;4983069;28;20022;-62
2022/04/13 02:53:15;;;;;;;3.65;1.73;;;;;;;;;;4978592;28;20091;-62
2022/04/13 02:55:41;;;;;;;9.13;3.65;;;;;;;;;;4981607;28;20057;-62
2022/04/13 02:58:07;;;;;;;4.63;2.00;;;;;;;;;;4982200;28;20113;-62
2022/04/13 03:00:33;;;;;;;2.63;1.50;;;;;;;;;;4992659;28;20042;-63
2022/04/13 03:02:59;;;;;;;6.28;1.60;;;;;;;;;;4978826;28;20404;-62
2022/04/13 03:05:26;;;;;;;9.20;2.20;;;;;;;;;;4982772;28;20037;-62
2022/04/13 03:07:52;;;;;;;2.78;1.70;;;;;;;;;;4978696;28;20073;-62
2022/04/13 03:10:18;;;;;;;3.60;1.80;;;;;;;;;;4980296;28;20026;-62
2022/04/13 03:12:44;;;;;;;6.18;1.77;;;;;;;;;;4973908;28;20475;-62
2022/04/13 03:15:11;;;;;;;4.93;2.20;;;;;;;;;;4978694;28;20430;-62
2022/04/13 03:17:38;;;;;;;5.90;1.70;;;;;;;;;;4980621;28;20106;-62
2022/04/13 03:20:04;;;;;;;2.85;1.67;;;;;;;;;;4981801;28;20076;-62
2022/04/13 03:22:30;;;;;;;4.47;2.20;;;;;;;;;;4979819;28;20034;-62
2022/04/13 03:24:59;;;;;;;4.97;1.90;;;;;;;;;;4978129;28;20019;-62
2022/04/13 03:27:25;;;;;;;4.07;1.80;;;;;;;;;;4979828;28;20035;-62
2022/04/13 03:29:51;;;;;;;4.63;1.88;;;;;;;;;;4984806;28;20146;-62
2022/04/13 03:32:18;;;;;;;4.30;1.70;;;;;;;;;;4983621;28;20075;-62
2022/04/13 03:34:44;;;;;;;2.70;1.80;;;;;;;;;;4973812;28;20122;-63
2022/04/13 03:37:10;;;;;;;4.97;2.13;;;;;;;;;;4973913;28;20035;-63
2022/04/13 03:39:36;;;;;;;7.53;2.20;;;;;;;;;;4977405;28;20031;-62
2022/04/13 03:42:02;;;;;;;6.13;2.10;;;;;;;;;;4991104;28;20061;-62
2022/04/13 03:44:29;;;;;;;4.45;2.08;;;;;;;;;;4988766;28;20357;-62
2022/04/13 03:46:55;;;;;;;6.78;2.13;;;;;;;;;;4976708;28;20038;-62
2022/04/13 03:49:21;;;;;;;4.00;1.83;;;;;;;;;;4984432;28;20027;-63
2022/04/13 03:51:47;;;;;;;4.50;1.80;;;;;;;;;;4973032;28;20031;-62
2022/04/13 03:54:13;;;;;;;4.45;2.15;;;;;;;;;;4973351;28;20027;-62
2022/04/13 03:56:39;;;;;;;6.70;2.38;;;;;;;;;;4972618;28;20055;-62
2022/04/13 03:59:09;;;;;;;4.28;2.65;;;;;;;;;;4973074;28;20119;-62
2022/04/13 04:01:35;;;;;;;4.13;2.45;;;;;;;;;;4973121;28;20034;-62
2022/04/13 04:04:02;;;;;;;5.93;2.22;;;;;;;;;;4973045;28;20027;-62
2022/04/13 04:06:28;;;;;;;4.82;2.17;;;;;;;;;;4972977;28;20030;-62
2022/04/13 04:08:54;;;;;;;11.43;2.38;;;;;;;;;;4973252;28;20053;-62
2022/04/13 04:11:20;;;;;;;6.63;2.30;;;;;;;;;;4978118;28;20034;-62
2022/04/13 04:13:46;;;;;;;4.13;2.30;;;;;;;;;;4997474;28;20116;-63
2022/04/13 04:16:12;;;;;;;4.25;2.35;;;;;;;;;;4992830;28;20034;-63
2022/04/13 04:18:38;;;;;;;8.43;2.88;;;;;;;;;;4992937;28;20026;-63
2022/04/13 04:21:04;;;;;;;5.32;2.45;;;;;;;;;;4992817;28;20034;-63
2022/04/13 04:23:30;;;;;;;5.55;2.20;;;;;;;;;;4987907;28;20026;-63
2022/04/13 04:25:57;;;;;;;6.45;2.80;;;;;;;;;;4973098;28;20134;-62
2022/04/13 04:28:23;;;;;;;6.97;2.83;;;;;;;;;;4973181;28;20027;-62
2022/04/13 04:30:49;;;;;;;5.80;2.80;;;;;;;;;;4973280;28;20476;-63
2022/04/13 04:33:16;;;;;;;3.50;2.47;;;;;;;;;;4973433;28;20023;-62
2022/04/13 04:35:46;;;;;;;9.52;2.90;;;;;;;;;;4973173;28;20053;-63
2022/04/13 04:38:13;;;;;;;6.97;3.08;;;;;;;;;;4982316;28;20038;-63
2022/04/13 04:40:40;;;;;;;3.50;2.42;;;;;;;;;;4991288;28;20023;-63
2022/04/13 04:43:06;;;;;;;9.73;3.03;;;;;;;;;;4991811;28;20038;-63
2022/04/13 04:45:32;;;;;;;6.38;2.45;;;;;;;;;;4992259;28;20060;-62
2022/04/13 04:48:04;;;;;;;7.70;2.47;;;;;;;;;;4992282;28;20121;-63
2022/04/13 04:50:30;;;;;;;5.93;2.60;;;;;;;;;;4991041;28;20101;-62
2022/04/13 04:52:56;;;;;;;5.72;2.80;;;;;;;;;;4982845;28;20031;-63
2022/04/13 04:55:23;;;;;;;9.50;2.97;;;;;;;;;;4975736;28;20046;-62
2022/04/13 04:57:50;;;;;;;4.35;2.90;;;;;;;;;;4978506;28;20137;-62
2022/04/13 05:00:20;;;;;;;8.57;2.50;;;;;;;;;;4980107;28;20034;-62
2022/04/13 05:02:49;;;;;;;10.82;2.88;;;;;;;;;;4988199;28;20019;-62
2022/04/13 05:05:16;;;;;;;6.95;3.00;;;;;;;;;;4978991;28;20034;-62
2022/04/13 05:07:43;;;;;;;5.63;2.83;;;;;;;;;;4980189;28;20022;-63
2022/04/13 05:10:10;;;;;;;5.90;2.72;;;;;;;;;;4980411;28;20045;-63
2022/04/13 05:12:43;;;;;;;6.00;3.13;;;;;;;;;;4977389;28;20022;-63
2022/04/13 05:15:09;;;;;;;11.98;3.42;;;;;;;;;;4981996;28;20475;-64
2022/04/13 05:17:37;;;;;;;10.02;2.83;;;;;;;;;;4976756;28;20388;-64
2022/04/13 05:20:04;;;;;;;5.45;2.75;;;;;;;;;;4979104;28;20395;-64
2022/04/13 05:22:30;;;;;;;7.90;2.72;;;;;;;;;;4981556;28;20491;-64
2022/04/13 05:25:01;;;;;;;6.47;2.60;;;;;;;;;;4981749;28;20452;-63
2022/04/13 05:27:27;;;;;;;5.70;2.53;;;;;;;;;;4978656;28;20048;-63
2022/04/13 05:29:53;;;;;;;6.95;2.78;;;;;;;;;;4978536;28;20462;-63
2022/04/13 05:32:19;;;;;;;9.25;2.80;;;;;;;;;;4977333;28;20058;-63
2022/04/13 05:34:45;;;;;;;9.00;3.10;;;;;;;;;;4979000;28;20426;-63
2022/04/13 05:37:11;;;;;;;7.97;3.20;;;;;;;;;;4977997;28;20023;-63
2022/04/13 05:39:38;;;;;;;10.55;3.28;;;;;;;;;;4980779;28;20041;-63
2022/04/13 05:42:04;;;;;;;6.13;3.10;;;;;;;;;;4978852;28;20042;-63
2022/04/13 05:44:30;;;;;;;7.82;3.15;;;;;;;;;;4981840;28;20083;-63
2022/04/13 05:46:56;;;;;;;8.02;3.25;;;;;;;;;;4978927;28;20084;-63
2022/04/13 05:49:23;;;;;;;6.78;2.50;;;;;;;;;;4979561;28;20023;-63
2022/04/13 05:51:49;;;;;;;6.03;2.53;;;;;;;;;;4978524;28;20035;-63
2022/04/13 05:54:16;;;;;;;8.15;3.00;;;;;;;;;;4979204;28;20056;-63
2022/04/13 05:56:42;;;;;;;4.43;2.45;;;;;;;;;;4976815;28;20061;-63
2022/04/13 05:59:08;;;;;;;9.13;2.95;;;;;;;;;;4978124;28;20038;-63
2022/04/13 06:01:34;;;;;;;11.02;3.33;;;;;;;;;;4977055;28;20033;-63
2022/04/13 06:04:00;;;;;;;9.38;2.88;;;;;;;;;;4978632;28;20034;-63
2022/04/13 06:06:28;;;;;;;9.60;3.00;;;;;;;;;;4980128;28;20027;-63
2022/04/13 06:08:54;;;;;;;5.85;2.90;;;;;;;;;;4980033;28;20026;-63
2022/04/13 06:11:20;;;;;;;11.38;3.50;;;;;;;;;;4977092;28;20022;-63
2022/04/13 06:13:46;;;;;;;8.27;2.58;;;;;;;;;;4981344;28;20046;-63
2022/04/13 06:16:13;;;;;;;11.93;3.83;;;;;;;;;;4979520;28;20030;-63
2022/04/13 06:18:39;;;;;;;5.68;2.60;;;;;;;;;;4978926;28;20022;-63
2022/04/13 06:21:05;;;;;;;3.47;2.47;;;;;;;;;;4975700;28;20553;-63
2022/04/13 06:23:31;;;;;;;11.27;2.83;;;;;;;;;;4979359;28;20081;-63
2022/04/13 06:25:57;;;;;;;7.20;3.20;;;;;;;;;;4973053;28;20035;-63
2022/04/13 06:28:23;;;;;;;4.97;2.90;;;;;;;;;;4977140;28;20032;-63
2022/04/13 06:30:50;;;;;;;7.72;2.50;;;;;;;;;;4979205;28;20030;-63
2022/04/13 06:33:16;;;;;;;4.88;2.55;;;;;;;;;;4978727;28;20038;-65
2022/04/13 06:35:42;;;;;;;4.65;2.33;;;;;;;;;;4972221;28;20396;-63
2022/04/13 06:38:08;;;;;;;5.85;2.75;;;;;;;;;;4973960;28;20045;-63
2022/04/13 06:40:34;;;;;;;9.18;2.78;;;;;;;;;;4976800;28;20051;-63
2022/04/13 06:43:00;;;;;;;4.70;2.42;;;;;;;;;;4980616;28;20030;-63
2022/04/13 06:45:26;;;;;;;8.43;3.10;;;;;;;;;;4992122;28;20062;-63
2022/04/13 06:47:52;;;;;;;5.85;2.80;;;;;;;;;;4970470;28;20035;-63
2022/04/13 06:50:18;;;;;;;7.80;3.00;;;;;;;;;;4971652;28;20015;-63
2022/04/13 06:52:45;;;;;;;13.25;2.50;;;;;;;;;;4974133;28;20042;-63
2022/04/13 06:55:11;;;;;;;6.97;2.88;;;;;;;;;;4973602;28;20034;-63
2022/04/13 06:57:38;;;;;;;6.88;3.00;;;;;;;;;;4979245;28;20058;-63
2022/04/13 07:00:08;;;;;;;8.20;3.70;;;;;;;;;;4973724;28;20122;-63
2022/04/13 07:02:35;;;;;;;16.42;3.85;;;;;;;;;;4982890;28;20341;-63
2022/04/13 07:05:01;;;;;;;4.38;2.88;;;;;;;;;;4981607;28;20050;-63
2022/04/13 07:07:28;;;;;;;6.13;3.13;;;;;;;;;;4975739;28;20749;-63
2022/04/13 07:09:54;;;;;;;10.85;3.67;;;;;;;;;;4988032;28;20514;-63
2022/04/13 07:12:20;;;;;;;6.45;3.17;;;;;;;;;;4975628;28;20496;-63
2022/04/13 07:14:46;;;;;;;5.22;3.13;;;;;;;;;;4976482;28;20148;-63
2022/04/13 07:17:12;;;;;;;6.63;3.35;;;;;;;;;;4979005;28;20546;-63
2022/04/13 07:19:38;;;;;;;9.27;3.17;;;;;;;;;;4978570;28;20069;-63
2022/04/13 07:22:05;;;;;;;10.48;3.40;;;;;;;;;;4976710;28;20046;-63
2022/04/13 07:24:31;;;;;;;5.50;3.30;;;;;;;;;;4978413;28;20039;-63
2022/04/13 07:26:57;;;;;;;8.95;3.22;;;;;;;;;;4977667;28;20054;-63
2022/04/13 07:29:23;;;;;;;15.60;3.58;;;;;;;;;;4976606;28;20030;-63
2022/04/13 07:31:49;;;;;;;5.07;3.22;;;;;;;;;;4977424;28;20373;-63
2022/04/13 07:34:16;;;;;;;10.13;3.10;;;;;;;;;;4983129;28;20101;-63
2022/04/13 07:36:42;;;;;;;5.55;3.30;;;;;;;;;;4980371;28;20053;-63
2022/04/13 07:39:08;;;;;;;7.15;2.90;;;;;;;;;;4983806;28;20038;-63
2022/04/13 07:41:34;;;;;;;8.55;3.10;;;;;;;;;;4974697;28;20034;-63
2022/04/13 07:44:01;;;;;;;18.33;5.45;;;;;;;;;;4975882;28;20035;-63
2022/04/13 07:46:28;;;;;;;9.10;3.83;;;;;;;;;;4982818;28;20041;-63
2022/04/13 07:48:54;;;;;;;7.47;3.72;;;;;;;;;;4983868;28;20030;-63
2022/04/13 07:51:20;;;;;;;5.63;3.08;;;;;;;;;;4978194;28;20117;-63
2022/04/13 07:53:47;;;;;;;9.15;4.13;;;;;;;;;;4974006;28;20027;-63
2022/04/13 07:56:13;;;;;;;14.88;3.95;;;;;;;;;;4975648;28;20042;-63
2022/04/13 07:58:39;;;;;;;7.78;3.30;;;;;;;;;;4983504;28;20038;-63
2022/04/13 08:01:05;;;;;;;8.93;3.13;;;;;;;;;;4981912;28;20020;-63
2022/04/13 08:03:32;;;;;;;9.13;2.75;;;;;;;;;;4976430;28;20484;-63
2022/04/13 08:05:58;;;;;;;8.80;3.05;;;;;;;;;;4976923;28;20038;-63
2022/04/13 08:08:24;;;;;;;8.38;2.78;;;;;;;;;;4981026;28;20080;-63
2022/04/13 08:10:50;;;;;;;9.77;2.65;;;;;;;;;;4972406;28;20037;-63
2022/04/13 08:13:17;;;;;;;4.28;2.13;;;;;;;;;;4985028;28;20069;-63
2022/04/13 08:15:43;;;;;;;4.50;1.90;;;;;;;;;;4981719;28;20057;-63
2022/04/13 08:18:09;;;;;;;7.63;2.35;;;;;;;;;;4980912;28;20037;-63
2022/04/13 08:20:35;;;;;;;4.97;2.75;;;;;;;;;;4975851;28;20034;-63
2022/04/13 08:23:01;;;;;;;3.80;1.77;;;;;;;;;;4975733;28;20027;-62
2022/04/13 08:25:27;;;;;;;6.85;1.80;;;;;;;;;;4986142;28;20099;-62
2022/04/13 08:27:53;;;;;;;5.32;1.80;;;;;;;;;;4977187;28;20264;-62
2022/04/13 08:30:20;;;;;;;4.05;1.40;;;;;;;;;;4972232;28;20389;-62
2022/04/13 08:32:46;;;;;;;4.75;1.50;;;;;;;;;;4987714;28;20027;-62
2022/04/13 08:35:12;;;;;;;8.20;1.77;;;;;;;;;;4978956;28;20023;-62
2022/04/13 08:37:39;;;;;;;7.97;1.90;;;;;;;;;;4976837;28;20037;-62
2022/04/13 08:40:05;;;;;;;8.52;2.00;;;;;;;;;;4981357;28;20030;-62
2022/04/13 08:42:34;;;;;;;4.85;2.00;;;;;;;;;;4980295;28;20031;-62
2022/04/13 08:45:03;;;;;;;5.75;1.90;;;;;;;;;;4971308;28;20046;-62
2022/04/13 08:47:30;;;;;;;4.53;2.15;;;;;;;;;;4976555;28;20099;-62
2022/04/13 08:49:57;;;;;;;6.22;1.60;;;;;;;;;;4979097;28;20026;-62
2022/04/13 08:52:29;;;;;;;5.30;1.83;;;;;;;;;;4979780;28;20035;-62
2022/04/13 08:54:56;;;;;;;6.65;1.63;;;;;;;;;;4971981;28;20402;-62
2022/04/13 08:57:23;;;;;;;5.20;1.85;;;;;;;;;;4983798;28;20037;-62
2022/04/13 09:00:08;;;;;;;8.07;1.95;;;;;;;;;;4973521;28;20042;-62
2022/04/13 09:02:49;;;;;;;8.85;1.58;;;;;;;;;;4976018;28;20035;-62
2022/04/13 09:05:16;;;;;;;5.78;1.50;;;;;;;;;;4974233;28;20042;-62
2022/04/13 09:07:43;;;;;;;6.55;2.20;;;;;;;;;;4973286;28;20480;-62
2022/04/13 09:10:16;;;;;;;6.15;1.58;;;;;;;;;;4974119;28;20931;-62
2022/04/13 09:12:42;;;;;;;4.70;1.48;;;;;;;;;;4972549;28;20595;-62
2022/04/13 09:15:09;;;;;;;6.18;1.70;;;;;;;;;;4980785;28;20039;-62
2022/04/13 09:17:35;;;;;;;6.05;1.33;;;;;;;;;;4975147;28;20030;-62
2022/04/13 09:20:02;;;;;;;4.32;1.33;;;;;;;;;;4982008;28;20704;-62
2022/04/13 09:22:30;;;;;;;7.35;1.58;;;;;;;;;;4975581;28;20427;-62
2022/04/13 09:24:57;;;;;;;7.82;1.50;;;;;;;;;;4977608;28;20123;-62
2022/04/13 09:27:24;;;;;;;4.68;1.30;;;;;;;;;;4977619;28;20110;-62
2022/04/13 09:29:50;;;;;;;5.07;1.42;;;;;;;;;;4980136;28;20061;-62
2022/04/13 09:32:18;;;;;;;8.25;1.58;;;;;;;;;;4979096;28;20114;-62
2022/04/13 09:34:44;;;;;;;6.18;2.08;;;;;;;;;;4980254;28;20151;-62
2022/04/13 09:37:11;;;;;;;4.88;1.55;;;;;;;;;;4977219;28;20030;-62
2022/04/13 09:39:38;;;;;;;9.88;1.60;;;;;;;;;;4975310;28;20034;-62
2022/04/13 09:42:05;;;;;;;5.32;1.55;;;;;;;;;;4975691;28;20081;-62
2022/04/13 09:44:33;;;;;;;7.07;2.17;;;;;;;;;;4975690;28;20070;-62
2022/04/13 09:47:06;;;;;;;8.50;1.90;;;;;;;;;;4974815;28;20035;-63
2022/04/13 09:49:32;;;;;;;5.43;2.00;;;;;;;;;;4980283;28;20037;-62
2022/04/13 09:51:59;;;;;;;6.25;1.55;;;;;;;;;;4974280;28;20022;-62
2022/04/13 09:54:26;;;;;;;7.78;1.63;;;;;;;;;;4979675;28;20031;-62
2022/04/13 09:56:52;;;;;;;6.68;1.33;;;;;;;;;;4976159;28;20057;-62
2022/04/13 09:59:29;;;;;;;5.97;1.48;;;;;;;;;;4974172;28;20117;-62
2022/04/13 10:01:55;;;;;;;5.35;1.50;;;;;;;;;;4975457;28;20118;-62
2022/04/13 10:04:24;;;;;;;5.47;1.27;;;;;;;;;;4969511;28;20026;-62
2022/04/13 10:06:50;;;;;;;4.25;1.13;;;;;;;;;;4974638;28;20030;-62
2022/04/13 10:09:16;;;;;;;4.68;0.88;;;;;;;;;;4977156;28;20495;-62
2022/04/13 10:12:02;;;;;;;7.07;1.05;;;;;;;;;;4972072;28;20100;-62
2022/04/13 10:14:28;;;;;;;5.20;1.30;;;;;;;;;;4970983;28;20030;-62
2022/04/13 10:16:57;;;;;;;4.10;1.10;;;;;;;;;;4978580;28;20152;-62
2022/04/13 10:19:23;;;;;;;2.90;0.90;;;;;;;;;;4975926;28;20026;-62
2022/04/13 10:21:51;;;;;;;2.25;1.13;;;;;;;;;;4978705;28;20038;-62
2022/04/13 10:24:17;;;;;;;4.57;1.00;;;;;;;;;;4979356;28;20038;-62
2022/04/13 10:26:59;;;;;;;2.92;1.10;;;;;;;;;;4978043;28;20070;-62
2022/04/13 10:29:26;;;;;;;2.17;0.90;;;;;;;;;;4978742;28;20015;-62
2022/04/13 10:32:02;;;;;;;4.97;0.93;;;;;;;;;;4978391;28;20038;-62
2022/04/13 10:34:32;;;;;;;4.82;1.23;;;;;;;;;;4976652;28;20031;-62
2022/04/13 10:36:59;;;;;;;3.28;1.08;;;;;;;;;;4977581;28;20038;-62
2022/04/13 10:39:25;;;;;;;6.28;1.00;;;;;;;;;;4975315;28;20049;-62
2022/04/13 10:41:51;;;;;;;3.03;0.93;;;;;;;;;;4975835;28;20117;-62
2022/04/13 10:44:23;;;;;;;2.47;0.93;;;;;;;;;;4974140;28;20031;-62
2022/04/13 10:46:51;;;;;;;4.50;1.10;;;;;;;;;;4974671;28;20152;-62
2022/04/13 10:49:20;;;;;;;3.28;0.93;;;;;;;;;;4971348;28;20496;-62
2022/04/13 10:51:48;;;;;;;10.77;1.25;;;;;;;;;;4976900;28;20033;-62
2022/04/13 10:54:15;;;;;;;3.00;0.70;;;;;;;;;;4977228;28;20035;-62
2022/04/13 10:56:43;;;;;;;3.88;1.05;;;;;;;;;;4974911;28;20057;-62
2022/04/13 10:59:16;;;;;;;3.35;1.00;;;;;;;;;;4977226;28;20457;-62
2022/04/13 11:01:46;;;;;;;6.03;1.10;;;;;;;;;;4972548;28;20441;-62
2022/04/13 11:04:13;;;;;;;4.15;0.82;;;;;;;;;;4974191;28;20457;-62
2022/04/13 11:06:43;;;;;;;1.25;0.60;;;;;;;;;;4984755;28;20039;-62
2022/04/13 11:09:13;;;;;;;3.13;0.90;;;;;;;;;;4975259;28;20096;-62
2022/04/13 11:11:40;;;;;;;4.13;1.02;;;;;;;;;;4977401;28;20034;-62
2022/04/13 11:14:22;;;;;;;7.63;0.80;;;;;;;;;;4975829;28;20112;-61
2022/04/13 11:16:52;;;;;;;2.53;0.85;;;;;;;;;;4971065;28;20039;-62
2022/04/13 11:19:19;;;;;;;1.95;0.80;;;;;;;;;;4973689;28;20111;-62
2022/04/13 11:21:51;;;;;;;1.58;0.70;;;;;;;;;;4972080;28;20047;-62
2022/04/13 11:24:36;;;;;;;2.40;0.90;;;;;;;;;;4973358;28;20054;-62
2022/04/13 11:27:03;;;;;;;2.85;0.82;;;;;;;;;;4971882;28;20087;-62
2022/04/13 11:29:37;;;;;;;4.00;0.82;;;;;;;;;;4980989;28;20022;-62
2022/04/13 11:32:04;;;;;;;3.63;1.13;;;;;;;;;;4973633;28;20019;-62
2022/04/13 11:34:36;;;;;;;3.25;1.17;;;;;;;;;;4976773;28;20515;-62
2022/04/13 11:37:03;;;;;;;5.73;0.93;;;;;;;;;;4975692;28;20098;-62
2022/04/13 11:39:48;;;;;;;2.95;0.90;;;;;;;;;;4973337;28;20392;-62
2022/04/13 11:42:26;;;;;;;2.60;0.90;;;;;;;;;;4971220;28;20488;-62
2022/04/13 11:44:55;;;;;;;4.53;0.95;;;;;;;;;;4971537;28;20073;-62
2022/04/13 11:47:22;;;;;;;2.40;0.90;;;;;;;;;;4974347;28;20039;-61
2022/04/13 11:49:58;;;;;;;3.33;1.10;;;;;;;;;;4976519;28;20081;-62
2022/04/13 11:52:38;;;;;;;3.33;0.65;;;;;;;;;;4983752;28;20019;-62
2022/04/13 11:55:15;;;;;;;2.63;0.85;;;;;;;;;;4982272;28;20026;-62
2022/04/13 11:58:07;;;;;;;3.28;0.77;;;;;;;;;;4978345;28;20035;-62
2022/04/13 12:00:40;;;;;;;5.67;1.40;;;;;;;;;;5002661;28;20044;-62
2022/04/13 12:03:09;;;;;;;3.20;1.13;;;;;;;;;;4973223;28;20282;-62
2022/04/13 12:06:01;;;;;;;6.90;0.98;;;;;;;;;;4973232;28;20448;-61
2022/04/13 12:08:41;;;;;;;2.03;0.90;;;;;;;;;;4976617;28;20035;-62
2022/04/13 12:11:10;;;;;;;3.80;0.63;;;;;;;;;;4975248;28;20476;-62
2022/04/13 12:13:48;;;;;;;2.20;1.00;;;;;;;;;;4973580;28;20407;-62
2022/04/13 12:16:24;;;;;;;3.05;1.00;;;;;;;;;;4983677;28;20042;-62
2022/04/13 12:18:51;;;;;;;1.77;0.88;;;;;;;;;;4974875;28;20034;-62
2022/04/13 12:21:21;;;;;;;4.00;1.10;;;;;;;;;;4980181;28;20446;-62
2022/04/13 12:23:48;;;;;;;2.70;1.00;;;;;;;;;;4980464;28;20530;-62
2022/04/13 12:26:15;;;;;;;3.22;1.00;;;;;;;;;;4972809;28;20039;-62
2022/04/13 12:28:41;;;;;;;3.85;1.23;;;;;;;;;;4972472;28;20073;-62
2022/04/13 12:31:11;;;;;;;5.55;0.98;;;;;;;;;;4976592;28;20476;-62
2022/04/13 12:33:38;;;;;;;3.25;0.90;;;;;;;;;;4985064;28;20100;-62
2022/04/13 12:36:05;;;;;;;3.72;1.20;;;;;;;;;;4973174;28;20039;-62
2022/04/13 12:38:34;;;;;;;2.80;0.93;;;;;;;;;;4979710;28;20526;-62
2022/04/13 12:41:08;;;;;;;4.05;1.15;;;;;;;;;;4982505;28;20036;-62
2022/04/13 12:43:34;;;;;;;2.70;0.68;;;;;;;;;;4978320;28;20092;-62
2022/04/13 12:46:20;;;;;;;6.05;0.85;;;;;;;;;;4974494;28;20043;-62
2022/04/13 12:48:47;;;;;;;6.78;1.00;;;;;;;;;;4986478;28;20031;-62
2022/04/13 12:51:14;;;;;;;7.95;1.13;;;;;;;;;;4974790;28;20027;-62
2022/04/13 12:53:45;;;;;;;4.63;1.30;;;;;;;;;;4980002;28;20042;-62
2022/04/13 12:56:13;;;;;;;3.78;1.33;;;;;;;;;;4976065;28;20054;-62
2022/04/13 12:58:40;;;;;;;5.38;1.60;;;;;;;;;;4978690;28;20054;-61
2022/04/13 13:01:07;;;;;;;5.32;1.42;;;;;;;;;;4972414;28;20038;-62
2022/04/13 13:03:35;;;;;;;5.25;2.00;;;;;;;;;;4979069;28;20030;-61
2022/04/13 13:06:11;;;;;;;8.93;1.50;;;;;;;;;;4980720;28;20053;-61
2022/04/13 13:08:50;;;;;;;5.32;1.80;;;;;;;;;;4973482;28;20081;-62
2022/04/13 13:11:17;;;;;;;7.45;1.50;;;;;;;;;;4973646;28;20026;-62
2022/04/13 13:13:43;;;;;;;4.72;1.58;;;;;;;;;;4973433;28;20035;-61
2022/04/13 13:16:09;;;;;;;8.52;3.60;;;;;;;;;;4972581;28;20031;-62
2022/04/13 13:18:36;;;;;;;15.05;5.82;;;;;;;;;;4972701;28;20042;-62
2022/04/13 13:21:02;;;;;;;13.23;5.63;;;;;;;;;;4988143;28;20038;-62
2022/04/13 13:23:30;;;;;;;12.40;3.53;;;;;;;;;;4979712;28;20034;-62
2022/04/13 13:25:58;;;;;;;9.98;2.10;;;;;;;;;;4991775;28;20200;-62
2022/04/13 13:28:24;;;;;;;8.55;1.73;;;;;;;;;;5021379;28;20016;-62
2022/04/13 13:30:51;;;;;;;6.60;1.38;;;;;;;;;;5072967;28;20036;-62
2022/04/13 13:33:19;;;;;;;6.35;1.88;;;;;;;;;;4980901;28;20117;-62
2022/04/13 13:35:45;;;;;;;5.15;1.50;;;;;;;;;;4991609;28;20079;-62
2022/04/13 13:38:16;;;;;;;7.13;1.50;;;;;;;;;;4990547;28;20536;-62
2022/04/13 13:40:43;;;;;;;7.10;1.70;;;;;;;;;;4988366;28;20046;-62
2022/04/13 13:43:11;;;;;;;9.93;2.08;;;;;;;;;;4991368;28;20026;-62
2022/04/13 13:45:41;;;;;;;8.18;2.25;;;;;;;;;;4991785;28;20026;-62
2022/04/13 13:48:08;;;;;;;7.32;1.90;;;;;;;;;;4991225;28;20061;-62
2022/04/13 13:50:38;;;;;;;9.25;1.92;;;;;;;;;;4991373;28;20421;-62
2022/04/13 13:53:05;;;;;;;5.38;2.15;;;;;;;;;;4991021;28;20030;-62
2022/04/13 13:55:33;;;;;;;6.07;1.83;;;;;;;;;;4980748;28;20047;-62
2022/04/13 13:57:59;;;;;;;8.73;1.70;;;;;;;;;;4972119;28;20064;-62
2022/04/13 14:00:26;;;;;;;5.32;2.15;;;;;;;;;;4975209;28;20031;-62
2022/04/13 14:02:53;;;;;;;5.20;1.60;;;;;;;;;;4985550;28;20024;-62
2022/04/13 14:05:20;;;;;;;9.88;1.90;;;;;;;;;;4971637;28;20152;-63
2022/04/13 14:07:46;;;;;;;5.38;2.20;;;;;;;;;;4971971;28;20080;-63
2022/04/13 14:10:13;;;;;;;7.95;2.10;;;;;;;;;;4986110;28;20030;-63
2022/04/13 14:12:39;;;;;;;4.80;2.00;;;;;;;;;;4990584;28;20030;-63
2022/04/13 14:15:05;;;;;;;3.90;1.38;;;;;;;;;;4990940;28;20058;-63
2022/04/13 14:17:31;;;;;;;8.80;1.92;;;;;;;;;;4981635;28;20506;-63
2022/04/13 14:19:57;;;;;;;6.80;2.03;;;;;;;;;;4985629;28;20030;-63
2022/04/13 14:22:24;;;;;;;11.18;2.38;;;;;;;;;;4976968;28;20035;-63
2022/04/13 14:24:50;;;;;;;13.75;2.20;;;;;;;;;;4971620;28;20105;-63
2022/04/13 14:27:16;;;;;;;5.15;1.52;;;;;;;;;;4978626;28;20019;-63
2022/04/13 14:29:42;;;;;;;7.60;1.83;;;;;;;;;;4971296;28;20031;-63
2022/04/13 14:32:08;;;;;;;8.23;1.77;;;;;;;;;;4982572;28;20031;-63
2022/04/13 14:34:34;;;;;;;9.20;1.70;;;;;;;;;;4974697;28;20027;-63
2022/04/13 14:37:01;;;;;;;9.88;2.00;;;;;;;;;;4971658;28;20041;-63
2022/04/13 14:39:27;;;;;;;5.72;1.85;;;;;;;;;;4971619;28;20042;-63
2022/04/13 14:41:53;;;;;;;4.43;1.73;;;;;;;;;;4971007;28;20057;-63
2022/04/13 14:44:19;;;;;;;7.00;1.67;;;;;;;;;;5005809;28;20030;-63
2022/04/13 14:46:45;;;;;;;7.18;1.83;;;;;;;;;;4990764;28;20131;-65